Time;durP1;ratioP1;P1;durP2;ratioP2;P2;SDS_P1;SDS_P2;PMS_P1;PMS_P2;Temp;Humidity;BMP_temperature;BMP_pressure;BME280_temperature;BME280_humidity;BME280_pressure;Samples;Min_cycle;Max_cycle;Signal;HPM_P1;HPM_P2
2023/06/06 19:45:38;;;;;;;8.10;5.50;;;;;;;17.75;70.23;97234.36;102644;1288;99045;-71
2023/06/06 19:48:06;;;;;;;6.80;5.20;;;;;;;17.73;70.15;97233.00;104861;1270;97887;-71
2023/06/06 19:50:33;;;;;;;7.80;6.10;;;;;;;17.71;70.16;97231.23;104786;1260;97865;-74
2023/06/06 19:52:59;;;;;;;9.90;6.70;;;;;;;17.68;70.39;97232.33;104861;1261;96627;-73
2023/06/06 19:55:26;;;;;;;9.10;7.20;;;;;;;17.66;70.36;97231.01;104944;1255;96779;-73
2023/06/06 19:57:53;;;;;;;9.50;6.80;;;;;;;17.66;70.55;97232.26;105013;1260;96713;-71
2023/06/06 20:00:20;;;;;;;11.60;7.70;;;;;;;17.65;70.61;97229.47;104965;1270;97866;-72
2023/06/06 20:02:47;;;;;;;10.70;8.70;;;;;;;17.64;70.80;97229.78;104994;1260;102173;-72
2023/06/06 20:05:14;;;;;;;10.70;8.20;;;;;;;17.61;70.68;97232.43;105032;1270;97737;-72
2023/06/06 20:07:42;;;;;;;11.90;8.50;;;;;;;17.59;70.71;97237.60;104974;1270;96552;-73
2023/06/06 20:10:11;;;;;;;11.30;8.60;;;;;;;17.58;70.90;97235.73;104709;1263;96743;-73
2023/06/06 20:12:39;;;;;;;11.50;8.10;;;;;;;17.56;70.88;97234.67;104786;1259;96968;-71
2023/06/06 20:15:07;;;;;;;9.60;7.30;;;;;;;17.55;71.06;97234.43;104863;1255;102376;-71
2023/06/06 20:17:33;;;;;;;10.80;7.70;;;;;;;17.50;70.99;97233.46;104651;1257;102328;-71
2023/06/06 20:20:00;;;;;;;11.60;8.30;;;;;;;17.42;71.30;97229.57;104845;1260;98143;-73
2023/06/06 20:22:27;;;;;;;9.50;7.70;;;;;;;17.37;71.38;97235.05;104932;1259;97860;-71
2023/06/06 20:24:55;;;;;;;8.90;7.30;;;;;;;17.35;71.49;97231.52;105018;1256;96544;-74
2023/06/06 20:27:22;;;;;;;10.60;8.30;;;;;;;17.34;71.66;97236.17;105111;1261;97218;-73
2023/06/06 20:29:50;;;;;;;10.80;7.20;;;;;;;17.31;71.81;97234.98;104924;1271;97455;-71
2023/06/06 20:32:17;;;;;;;12.20;9.70;;;;;;;17.28;71.77;97235.66;104796;1270;97407;-71
2023/06/06 20:34:43;;;;;;;16.60;12.90;;;;;;;17.27;71.67;97240.77;104733;1256;97369;-73
2023/06/06 20:37:11;;;;;;;13.80;10.60;;;;;;;17.26;71.83;97238.11;104763;1259;97693;-71
2023/06/06 20:39:51;;;;;;;11.30;8.40;;;;;;;17.23;72.06;97235.17;104618;1256;101388;-70
2023/06/06 20:42:20;;;;;;;9.70;8.30;;;;;;;17.19;72.13;97231.96;104831;1256;100409;-72
2023/06/06 20:44:47;;;;;;;11.00;8.20;;;;;;;17.16;72.28;97230.84;104630;1264;97090;-72
2023/06/06 20:47:13;;;;;;;9.50;8.20;;;;;;;17.14;72.39;97229.91;104688;1261;96672;-71
2023/06/06 20:49:40;;;;;;;9.40;7.80;;;;;;;17.12;72.27;97232.67;104778;1262;97979;-72
2023/06/06 20:52:07;;;;;;;10.00;7.80;;;;;;;17.10;72.46;97233.02;104822;1260;97562;-72
2023/06/06 20:54:34;;;;;;;10.50;8.00;;;;;;;17.06;72.50;97233.74;104785;1271;96641;-71
2023/06/06 20:57:01;;;;;;;10.20;7.60;;;;;;;17.04;72.55;97234.48;105090;1261;97147;-70
2023/06/06 20:59:28;;;;;;;11.80;7.80;;;;;;;17.01;72.66;97234.30;104883;1259;102868;-71
2023/06/06 21:01:55;;;;;;;9.80;7.50;;;;;;;16.99;72.69;97231.11;104610;1262;96643;-69
2023/06/06 21:04:22;;;;;;;10.20;7.60;;;;;;;16.95;72.87;97229.70;104774;1261;97456;-71
2023/06/06 21:06:49;;;;;;;9.90;8.10;;;;;;;16.89;73.10;97228.61;104867;1261;97856;-74
2023/06/06 21:09:17;;;;;;;9.20;7.80;;;;;;;16.85;73.22;97229.60;104892;1259;96553;-72
2023/06/06 21:11:44;;;;;;;9.40;7.60;;;;;;;16.82;73.31;97230.48;104682;1260;96618;-71
2023/06/06 21:14:11;;;;;;;9.60;8.00;;;;;;;16.81;73.25;97229.60;104723;1262;97103;-71
2023/06/06 21:16:39;;;;;;;7.90;7.00;;;;;;;16.78;73.34;97231.04;105066;1257;97167;-71
2023/06/06 21:19:09;;;;;;;10.20;7.40;;;;;;;16.75;73.45;97232.48;104994;1257;97845;-73
2023/06/06 21:21:37;;;;;;;9.30;6.50;;;;;;;16.72;73.55;97228.95;104636;1261;97005;-71
2023/06/06 21:24:05;;;;;;;8.00;7.00;;;;;;;16.70;73.62;97231.48;105272;1255;102728;-71
2023/06/06 21:26:32;;;;;;;9.50;7.60;;;;;;;16.67;73.75;97231.66;104776;1271;102578;-71
2023/06/06 21:28:59;;;;;;;9.50;7.90;;;;;;;16.64;73.84;97227.77;104902;1257;97179;-71
2023/06/06 21:31:25;;;;;;;10.50;7.80;;;;;;;16.62;73.88;97220.33;104967;1257;96601;-71
2023/06/06 21:33:52;;;;;;;11.50;8.50;;;;;;;16.58;74.10;97219.70;105099;1256;97205;-71
2023/06/06 21:36:19;;;;;;;11.20;7.90;;;;;;;16.55;74.12;97223.32;105172;1253;97883;-71
2023/06/06 21:38:45;;;;;;;9.20;7.70;;;;;;;16.54;74.16;97222.92;104961;1257;100577;-71
2023/06/06 21:41:12;;;;;;;8.70;7.70;;;;;;;16.52;74.21;97223.99;105031;1266;97304;-71
2023/06/06 21:43:39;;;;;;;12.10;8.70;;;;;;;16.44;74.28;97220.89;104905;1251;185557;-71
2023/06/06 21:46:06;;;;;;;12.90;8.90;;;;;;;16.39;74.27;97215.55;104976;1266;96636;-71
2023/06/06 21:48:33;;;;;;;10.90;8.50;;;;;;;16.34;74.28;97217.87;105136;1251;96565;-73
2023/06/06 21:50:59;;;;;;;10.50;8.00;;;;;;;16.26;74.61;97212.53;105064;1258;97227;-73
2023/06/06 21:53:44;;;;;;;12.10;7.90;;;;;;;16.21;74.72;97215.45;105217;1253;97790;-71
2023/06/06 21:56:11;;;;;;;9.50;7.80;;;;;;;16.18;74.70;97215.37;105030;1259;97852;-72
2023/06/06 21:58:38;;;;;;;11.90;8.60;;;;;;;16.14;74.80;97214.52;105063;1256;97286;-72
2023/06/06 22:01:05;;;;;;;9.60;8.50;;;;;;;16.07;74.82;97217.94;104958;1268;97106;-74
2023/06/06 22:03:33;;;;;;;10.50;8.60;;;;;;;16.02;75.01;97223.23;105137;1257;96754;-73
2023/06/06 22:06:02;;;;;;;11.20;8.80;;;;;;;16.01;74.98;97223.95;105024;1253;96627;-71
2023/06/06 22:08:30;;;;;;;10.10;8.50;;;;;;;15.99;75.08;97227.08;105093;1267;97743;-71
2023/06/06 22:10:57;;;;;;;12.50;9.30;;;;;;;15.95;75.06;97231.10;105020;1255;96619;-73
2023/06/06 22:13:24;;;;;;;13.60;9.30;;;;;;;15.92;75.23;97229.83;104995;1263;96553;-72
2023/06/06 22:15:52;;;;;;;13.60;8.90;;;;;;;15.92;75.31;97230.52;105006;1253;96559;-71
2023/06/06 22:18:18;;;;;;;12.30;8.30;;;;;;;15.89;75.33;97227.86;105008;1259;97189;-73
2023/06/06 22:20:45;;;;;;;10.40;8.90;;;;;;;15.82;75.39;97230.63;104981;1268;97648;-73
2023/06/06 22:23:13;;;;;;;11.70;8.80;;;;;;;15.74;75.35;97234.54;104946;1260;98022;-71
2023/06/06 22:25:40;;;;;;;9.60;8.60;;;;;;;15.71;75.43;97230.93;104833;1261;98337;-71
2023/06/06 22:28:08;;;;;;;10.80;8.80;;;;;;;15.69;75.41;97231.96;105076;1255;96812;-72
2023/06/06 22:30:35;;;;;;;11.60;8.80;;;;;;;15.67;75.49;97227.30;104962;1251;97877;-72
2023/06/06 22:33:22;;;;;;;10.00;8.50;;;;;;;15.64;75.51;97226.42;104989;1253;96589;-71
2023/06/06 22:35:49;;;;;;;11.30;8.30;;;;;;;15.62;75.65;97225.73;104753;1257;101929;-72
2023/06/06 22:38:16;;;;;;;10.00;8.30;;;;;;;15.59;75.82;97221.50;104823;1259;97465;-72
2023/06/06 22:40:43;;;;;;;11.80;7.80;;;;;;;15.50;75.62;97220.30;104789;1261;97756;-71
2023/06/06 22:43:10;;;;;;;9.30;8.30;;;;;;;15.43;75.94;97217.38;104857;1259;96553;-70
2023/06/06 22:45:37;;;;;;;10.40;7.90;;;;;;;15.43;76.10;97221.11;104816;1256;96695;-71
2023/06/06 22:48:04;;;;;;;11.60;8.20;;;;;;;15.41;76.10;97223.54;105040;1272;96515;-73
2023/06/06 22:50:31;;;;;;;10.40;8.10;;;;;;;15.38;76.13;97217.83;104851;1277;96931;-72
2023/06/06 22:52:58;;;;;;;11.60;8.30;;;;;;;15.31;76.38;97215.54;104554;1260;97351;-71
2023/06/06 22:55:24;;;;;;;8.60;7.80;;;;;;;15.24;76.35;97211.64;104781;1256;98059;-71
2023/06/06 22:57:51;;;;;;;8.70;7.80;;;;;;;15.23;76.49;97208.40;104894;1256;97796;-71
2023/06/06 23:00:18;;;;;;;9.60;7.60;;;;;;;15.23;76.52;97209.83;104883;1261;98060;-71
2023/06/06 23:02:45;;;;;;;9.60;7.60;;;;;;;15.21;76.48;97210.67;104901;1259;98214;-71
2023/06/06 23:05:12;;;;;;;9.00;7.60;;;;;;;15.16;76.52;97214.39;104684;1271;97461;-71
2023/06/06 23:07:40;;;;;;;8.20;7.40;;;;;;;15.14;76.61;97211.67;105219;1262;96678;-71
2023/06/06 23:10:08;;;;;;;8.00;7.20;;;;;;;15.13;76.63;97212.52;105135;1253;96812;-71
2023/06/06 23:12:34;;;;;;;8.80;7.50;;;;;;;15.13;76.72;97209.10;105220;1259;96755;-70
2023/06/06 23:15:01;;;;;;;12.60;8.40;;;;;;;15.09;76.81;97207.73;105233;1253;97859;-72
2023/06/06 23:17:29;;;;;;;11.40;8.10;;;;;;;15.02;76.78;97211.90;104974;1271;96552;-73
2023/06/06 23:19:56;;;;;;;12.50;8.90;;;;;;;15.01;76.91;97214.11;105310;1257;96550;-71
2023/06/06 23:22:23;;;;;;;10.40;8.40;;;;;;;15.00;76.98;97215.62;105177;1257;97871;-70
2023/06/06 23:24:49;;;;;;;10.50;8.20;;;;;;;14.99;77.01;97214.89;104677;1261;96628;-71
2023/06/06 23:27:16;;;;;;;12.00;8.90;;;;;;;14.98;76.99;97213.95;105243;1258;102927;-70
2023/06/06 23:29:43;;;;;;;13.50;8.80;;;;;;;14.92;77.15;97209.17;105027;1259;97374;-71
2023/06/06 23:32:09;;;;;;;8.80;7.90;;;;;;;14.89;77.35;97206.23;105021;1256;97848;-72
2023/06/06 23:34:36;;;;;;;8.70;7.50;;;;;;;14.88;77.28;97204.29;105021;1258;97942;-70
2023/06/06 23:37:03;;;;;;;9.10;8.20;;;;;;;14.83;77.53;97204.70;105387;1270;96649;-71
2023/06/06 23:39:29;;;;;;;7.60;6.90;;;;;;;14.79;77.61;97203.45;105260;1251;101911;-71
2023/06/06 23:41:56;;;;;;;9.40;6.90;;;;;;;14.80;77.91;97201.50;105026;1256;97855;-72
2023/06/06 23:44:23;;;;;;;9.90;7.80;;;;;;;14.81;77.82;97203.63;104984;1275;96628;-71
2023/06/06 23:46:50;;;;;;;10.70;8.80;;;;;;;14.79;78.01;97202.77;104944;1257;96577;-71
2023/06/06 23:49:17;;;;;;;8.50;7.40;;;;;;;14.78;77.96;97200.53;104943;1259;97050;-73
2023/06/06 23:51:44;;;;;;;8.70;7.80;;;;;;;14.77;77.87;97198.45;104981;1257;100371;-71
2023/06/06 23:54:10;;;;;;;8.80;7.70;;;;;;;14.76;77.87;97198.60;104910;1253;97858;-71
2023/06/06 23:56:37;;;;;;;8.30;7.40;;;;;;;14.76;78.11;97206.58;105100;1268;96582;-72
2023/06/06 23:59:04;;;;;;;8.90;7.50;;;;;;;14.76;78.06;97204.67;105068;1266;97069;-73
